Time;durP1;ratioP1;P1;durP2;ratioP2;P2;SDS_P1;SDS_P2;PMS_P1;PMS_P2;Temp;Humidity;BMP_temperature;BMP_pressure;BME280_temperature;BME280_humidity;BME280_pressure;Samples;Min_cycle;Max_cycle;Signal;HPM_P1;HPM_P2
2022/05/06 00:02:16;;;;;;;17.60;15.77;;;12.00;99.90;;;;;;5036988;28;20145;-79
2022/05/06 00:04:43;;;;;;;17.15;15.35;;;11.90;99.90;;;;;;5040604;28;20025;-79
2022/05/06 00:07:12;;;;;;;20.02;14.93;;;11.90;99.90;;;;;;5056626;28;20033;-79
2022/05/06 00:09:39;;;;;;;16.23;14.40;;;11.90;99.90;;;;;;5056128;28;20039;-78
2022/05/06 00:12:06;;;;;;;17.20;13.00;;;11.80;99.90;;;;;;5056228;28;20393;-81
2022/05/06 00:14:34;;;;;;;15.77;14.13;;;11.80;99.90;;;;;;5067646;28;20033;-80
2022/05/06 00:17:02;;;;;;;17.55;13.68;;;11.70;99.90;;;;;;5064336;28;20052;-79
2022/05/06 00:19:29;;;;;;;14.77;13.25;;;11.80;99.90;;;;;;5036865;28;20030;-79
2022/05/06 00:21:55;;;;;;;19.48;15.32;;;11.70;99.90;;;;;;5047971;28;20025;-79
2022/05/06 00:24:21;;;;;;;19.95;15.27;;;11.70;99.90;;;;;;5025569;28;20030;-80
2022/05/06 00:26:47;;;;;;;15.57;13.27;;;11.70;99.90;;;;;;5035808;28;20045;-80
2022/05/06 00:29:14;;;;;;;17.85;14.75;;;11.60;99.90;;;;;;5052214;28;20474;-79
2022/05/06 00:31:40;;;;;;;14.80;13.13;;;11.60;99.90;;;;;;5068927;28;20461;-78
2022/05/06 00:34:11;;;;;;;15.93;14.25;;;11.50;99.90;;;;;;5048160;28;20473;-79
2022/05/06 00:36:37;;;;;;;17.13;13.85;;;11.50;99.90;;;;;;5054095;28;20035;-79
2022/05/06 00:39:04;;;;;;;16.20;13.95;;;11.60;99.90;;;;;;5038230;28;20037;-80
2022/05/06 00:41:34;;;;;;;16.38;14.45;;;11.50;99.90;;;;;;5035410;28;20045;-79
2022/05/06 00:44:00;;;;;;;14.35;12.90;;;11.60;99.90;;;;;;5035822;28;20030;-79
2022/05/06 00:46:27;;;;;;;16.75;12.77;;;11.60;99.90;;;;;;5035783;28;20041;-80
2022/05/06 00:48:55;;;;;;;17.80;13.73;;;11.60;99.90;;;;;;5036169;28;20041;-79
2022/05/06 00:51:22;;;;;;;14.70;11.38;;;11.70;99.90;;;;;;5036136;28;20037;-83
2022/05/06 00:53:48;;;;;;;16.25;11.50;;;11.80;99.90;;;;;;5035135;28;20477;-79
2022/05/06 00:56:16;;;;;;;15.40;11.70;;;11.90;99.90;;;;;;5037180;28;20045;-80
2022/05/06 00:58:46;;;;;;;13.48;10.68;;;11.90;99.90;;;;;;5023518;28;20037;-79
2022/05/06 01:01:12;;;;;;;14.20;11.13;;;11.90;99.90;;;;;;5065012;28;20466;-79
2022/05/06 01:03:38;;;;;;;10.35;9.23;;;12.00;99.90;;;;;;5031606;28;20040;-79
2022/05/06 01:06:10;;;;;;;17.42;10.10;;;11.90;99.90;;;;;;5049963;28;20466;-80
2022/05/06 01:08:38;;;;;;;11.95;9.77;;;12.00;99.90;;;;;;5036462;28;20049;-78
2022/05/06 01:11:06;;;;;;;12.15;8.80;;;12.00;99.90;;;;;;5049847;28;20040;-78
2022/05/06 01:13:43;;;;;;;8.55;7.53;;;12.00;99.90;;;;;;5048747;28;20040;-83
2022/05/06 01:16:13;;;;;;;11.65;8.55;;;12.00;99.90;;;;;;5053914;28;20040;-81
2022/05/06 01:18:47;;;;;;;9.38;8.05;;;11.90;99.90;;;;;;5048106;28;20474;-79
2022/05/06 01:21:26;;;;;;;7.70;6.90;;;11.90;99.90;;;;;;5051867;28;20043;-79
2022/05/06 01:23:52;;;;;;;10.82;7.85;;;11.90;99.90;;;;;;5034492;28;20030;-78
2022/05/06 01:26:18;;;;;;;8.25;6.78;;;12.00;99.90;;;;;;5016818;28;20053;-85
2022/05/06 01:28:45;;;;;;;9.77;6.50;;;12.00;99.90;;;;;;5034980;28;20454;-79
2022/05/06 01:31:21;;;;;;;10.15;6.63;;;12.00;99.90;;;;;;5032936;28;20042;-78
2022/05/06 01:33:54;;;;;;;9.27;5.95;;;12.10;99.90;;;;;;5035403;28;20038;-79
2022/05/06 01:36:24;;;;;;;6.78;5.28;;;12.10;99.90;;;;;;5036738;28;20389;-87
2022/05/06 01:38:54;;;;;;;8.45;6.93;;;12.10;99.90;;;;;;5034441;28;20143;-79
2022/05/06 01:41:24;;;;;;;6.57;5.97;;;12.10;99.90;;;;;;5016874;28;20406;-85
2022/05/06 01:44:04;;;;;;;10.23;5.57;;;12.10;99.90;;;;;;5017717;28;20037;-79
2022/05/06 01:46:35;;;;;;;8.52;5.35;;;12.00;99.90;;;;;;5025130;28;20045;-79
2022/05/06 01:49:04;;;;;;;7.95;4.97;;;12.00;99.90;;;;;;5016531;28;20045;-78
2022/05/06 01:51:33;;;;;;;6.60;5.55;;;12.00;99.90;;;;;;5034250;28;20093;-80
2022/05/06 01:54:03;;;;;;;13.80;5.20;;;11.90;99.90;;;;;;5016526;28;20045;-78
2022/05/06 01:56:30;;;;;;;5.75;4.57;;;11.90;99.90;;;;;;5015686;28;20045;-78
2022/05/06 01:58:56;;;;;;;5.35;4.72;;;11.80;99.90;;;;;;5040020;28;20056;-78
2022/05/06 02:01:23;;;;;;;5.43;4.50;;;11.80;99.90;;;;;;5043800;28;20043;-82
2022/05/06 02:06:36;;;;;;;7.82;5.03;;;11.70;99.90;;;;;;5043542;28;20056;-79
2022/05/06 02:09:16;;;;;;;6.93;4.32;;;11.70;99.90;;;;;;5051728;28;20052;-79
2022/05/06 02:11:54;;;;;;;5.63;5.03;;;11.60;99.90;;;;;;5017313;28;20033;-78
2022/05/06 02:14:25;;;;;;;8.90;4.15;;;11.60;99.90;;;;;;5032754;28;20044;-78
2022/05/06 02:17:25;;;;;;;10.10;4.38;;;11.50;99.90;;;;;;5022180;28;20056;-79
2022/05/06 02:20:12;;;;;;;4.55;4.15;;;11.50;99.90;;;;;;5023240;28;20037;-79
2022/05/06 02:22:58;;;;;;;4.53;3.75;;;11.40;99.90;;;;;;5019119;28;20041;-78
2022/05/06 02:25:41;;;;;;;5.05;4.55;;;11.40;99.90;;;;;;5033776;28;20621;-79
2022/05/06 02:28:11;;;;;;;5.78;3.90;;;11.30;99.90;;;;;;5031337;28;20060;-79
2022/05/06 02:33:26;;;;;;;6.45;4.10;;;11.30;99.90;;;;;;5015568;28;20435;-79
2022/05/06 02:36:16;;;;;;;5.88;4.05;;;11.20;99.90;;;;;;5033752;28;20492;-79
2022/05/06 02:38:42;;;;;;;5.80;3.70;;;11.20;99.90;;;;;;5020568;28;20040;-78
2022/05/06 02:41:09;;;;;;;6.32;3.40;;;11.20;99.90;;;;;;5053553;28;20393;-78
2022/05/06 02:43:47;;;;;;;3.92;3.30;;;11.20;99.90;;;;;;5051618;28;20358;-78
2022/05/06 02:46:14;;;;;;;4.60;3.70;;;11.10;99.90;;;;;;5052885;28;20481;-78
2022/05/06 02:48:41;;;;;;;5.72;4.43;;;11.10;99.90;;;;;;5053017;28;20032;-80
2022/05/06 02:51:11;;;;;;;7.43;3.42;;;11.10;99.90;;;;;;5037030;28;20041;-78
2022/05/06 02:53:39;;;;;;;5.75;4.55;;;11.10;99.90;;;;;;5019669;28;20067;-79
2022/05/06 02:56:06;;;;;;;5.68;3.92;;;11.00;99.90;;;;;;5027795;28;20054;-79
2022/05/06 02:58:42;;;;;;;4.80;3.22;;;11.00;99.90;;;;;;5046526;28;20041;-78
2022/05/06 03:01:09;;;;;;;3.40;2.88;;;10.90;99.90;;;;;;5047755;28;20463;-78
2022/05/06 03:03:37;;;;;;;7.13;3.83;;;10.90;99.90;;;;;;5022146;28;20041;-78
2022/05/06 03:06:10;;;;;;;5.07;3.97;;;10.90;99.90;;;;;;5053967;28;20041;-78
2022/05/06 03:08:38;;;;;;;4.15;3.20;;;10.80;99.90;;;;;;5054382;28;20049;-78
2022/05/06 03:11:05;;;;;;;4.57;3.95;;;10.80;99.90;;;;;;5021330;28;20492;-79
2022/05/06 03:13:37;;;;;;;3.17;2.83;;;10.80;99.90;;;;;;5031651;28;20048;-78
2022/05/06 03:16:08;;;;;;;4.55;3.30;;;10.70;99.90;;;;;;5015596;28;20041;-78
2022/05/06 03:18:35;;;;;;;5.50;4.03;;;10.70;99.90;;;;;;5030747;28;20045;-78
2022/05/06 03:21:01;;;;;;;3.67;3.38;;;10.70;99.90;;;;;;5022956;28;20478;-78
2022/05/06 03:23:28;;;;;;;7.43;3.97;;;10.60;99.90;;;;;;5035112;28;20025;-79
2022/05/06 03:25:54;;;;;;;4.50;3.35;;;10.70;99.90;;;;;;5044481;28;20470;-79
2022/05/06 03:28:20;;;;;;;6.93;3.90;;;10.60;99.90;;;;;;5051255;28;20048;-79
2022/05/06 03:30:47;;;;;;;7.32;3.15;;;10.60;99.90;;;;;;5053579;28;20385;-83
2022/05/06 03:33:35;;;;;;;4.38;3.30;;;10.60;99.90;;;;;;5019562;28;20052;-78
2022/05/06 03:36:12;;;;;;;11.30;3.80;;;10.50;99.90;;;;;;5032163;28;20046;-78
2022/05/06 03:38:48;;;;;;;3.88;3.47;;;10.50;99.90;;;;;;5032837;28;20037;-79
2022/05/06 03:41:15;;;;;;;4.15;3.45;;;10.50;99.90;;;;;;5032025;28;20037;-78
2022/05/06 03:43:43;;;;;;;4.03;2.83;;;10.50;99.90;;;;;;5032351;28;20049;-78
2022/05/06 03:46:16;;;;;;;4.18;3.15;;;10.50;99.90;;;;;;5024876;28;20048;-79
2022/05/06 03:48:43;;;;;;;3.40;3.00;;;10.50;99.90;;;;;;5044182;28;20052;-80
2022/05/06 03:51:22;;;;;;;6.00;2.95;;;10.50;99.90;;;;;;5032695;28;20490;-79
2022/05/06 03:53:56;;;;;;;5.32;3.50;;;10.40;99.90;;;;;;5015145;28;20041;-79
2022/05/06 03:56:25;;;;;;;4.43;2.95;;;10.40;99.90;;;;;;5014091;28;20386;-83
2022/05/06 03:58:53;;;;;;;5.65;3.13;;;10.40;99.90;;;;;;5026439;28;20048;-78
2022/05/06 04:01:21;;;;;;;4.65;3.13;;;10.40;99.90;;;;;;5015112;28;20053;-81
2022/05/06 04:03:54;;;;;;;9.35;3.55;;;10.30;99.90;;;;;;5030011;28;20056;-79
2022/05/06 04:06:26;;;;;;;9.88;2.95;;;10.20;99.90;;;;;;5020206;28;20041;-79
2022/05/06 04:08:55;;;;;;;3.60;3.17;;;10.30;99.90;;;;;;5024224;28;20045;-79
2022/05/06 04:11:24;;;;;;;5.00;3.33;;;10.30;99.90;;;;;;5047166;28;20025;-86
2022/05/06 04:13:55;;;;;;;4.03;3.63;;;10.20;99.90;;;;;;5029756;28;20045;-79
2022/05/06 04:16:24;;;;;;;3.63;3.20;;;10.20;99.90;;;;;;5042403;28;20048;-78
2022/05/06 04:18:50;;;;;;;6.28;3.78;;;10.20;99.90;;;;;;5024303;28;20490;-79
2022/05/06 04:24:02;;;;;;;8.35;3.88;;;10.20;99.90;;;;;;5014634;28;20041;-80
2022/05/06 04:26:28;;;;;;;8.07;2.95;;;10.20;99.90;;;;;;5014329;28;20042;-79
2022/05/06 04:28:56;;;;;;;3.95;3.45;;;10.20;99.90;;;;;;5018475;28;20045;-79
2022/05/06 04:31:24;;;;;;;6.88;4.20;;;10.20;99.90;;;;;;5050351;28;20474;-83
2022/05/06 04:33:53;;;;;;;17.48;3.25;;;10.10;99.90;;;;;;5025823;28;20064;-80
2022/05/06 04:36:25;;;;;;;4.03;3.17;;;10.20;99.90;;;;;;5021311;28;20041;-82
2022/05/06 04:38:55;;;;;;;5.32;3.05;;;10.10;99.90;;;;;;5037558;28;20037;-79
2022/05/06 04:41:22;;;;;;;4.03;3.38;;;10.10;99.90;;;;;;5018044;28;20048;-79
2022/05/06 04:43:49;;;;;;;3.55;2.67;;;10.10;99.90;;;;;;5029319;28;20041;-79
2022/05/06 04:46:17;;;;;;;6.85;3.92;;;10.10;99.90;;;;;;5024191;28;20049;-80
2022/05/06 04:48:45;;;;;;;5.90;2.90;;;10.10;99.90;;;;;;5042909;28;20037;-79
2022/05/06 04:51:14;;;;;;;3.72;3.33;;;10.10;99.90;;;;;;5033922;28;20045;-79
2022/05/06 04:53:40;;;;;;;7.15;3.83;;;10.10;99.90;;;;;;5044722;28;20028;-79
2022/05/06 04:56:07;;;;;;;4.93;3.30;;;10.10;99.90;;;;;;5020495;28;20045;-79
2022/05/06 04:58:39;;;;;;;4.70;3.33;;;10.10;99.90;;;;;;5019093;28;20379;-78
2022/05/06 05:01:10;;;;;;;6.78;3.63;;;10.10;99.90;;;;;;5033432;28;20041;-77
2022/05/06 05:03:39;;;;;;;7.00;4.28;;;10.00;99.90;;;;;;5017586;28;20048;-79
2022/05/06 05:06:07;;;;;;;5.32;3.38;;;10.00;99.90;;;;;;5016891;28;20117;-79
2022/05/06 05:08:34;;;;;;;6.15;3.67;;;10.00;99.90;;;;;;5016333;28;20394;-77
2022/05/06 05:11:03;;;;;;;7.18;3.15;;;10.00;99.90;;;;;;5052214;28;20426;-77
2022/05/06 05:13:38;;;;;;;5.35;3.40;;;10.10;99.90;;;;;;5052271;28;20428;-77
2022/05/06 05:16:05;;;;;;;3.03;2.77;;;10.10;99.90;;;;;;5053917;28;20151;-77
2022/05/06 05:18:31;;;;;;;10.15;3.38;;;10.10;99.90;;;;;;5035898;28;20292;-77
2022/05/06 05:20:58;;;;;;;7.03;3.45;;;10.10;99.90;;;;;;5043508;28;20477;-77
2022/05/06 05:23:24;;;;;;;3.70;2.88;;;10.10;99.90;;;;;;5032863;28;20046;-82
2022/05/06 05:25:51;;;;;;;3.95;3.55;;;10.10;99.90;;;;;;5036897;28;20028;-77
2022/05/06 05:28:18;;;;;;;5.70;2.67;;;10.10;99.90;;;;;;5043929;28;20397;-77
2022/05/06 05:30:44;;;;;;;6.18;2.80;;;10.10;99.90;;;;;;5045095;28;20121;-78
2022/05/06 05:33:10;;;;;;;3.72;3.40;;;10.20;99.90;;;;;;5017000;28;20356;-79
2022/05/06 05:35:44;;;;;;;3.47;2.83;;;10.20;99.90;;;;;;5020632;28;20037;-78
2022/05/06 05:38:11;;;;;;;4.20;3.20;;;10.20;99.90;;;;;;5029293;28;20439;-78
2022/05/06 05:40:38;;;;;;;7.43;3.33;;;10.20;99.90;;;;;;5046801;28;20033;-77
2022/05/06 05:48:19;;;;;;;3.70;3.22;;;10.20;99.90;;;;;;5026236;28;20045;-80
2022/05/06 05:48:41;;;;;;;3.45;3.15;;;10.20;99.90;;;;;;5031915;28;20073;-77
2022/05/06 05:51:08;;;;;;;3.60;3.10;;;10.30;99.90;;;;;;5026858;28;20064;-77
2022/05/06 05:53:43;;;;;;;5.35;2.70;;;10.30;99.90;;;;;;5016048;28;20041;-76
2022/05/06 05:56:10;;;;;;;3.90;3.10;;;10.30;99.90;;;;;;5022080;28;20056;-76
2022/05/06 05:58:37;;;;;;;8.43;3.55;;;10.40;99.90;;;;;;5038163;28;20045;-76
2022/05/06 06:01:06;;;;;;;3.85;3.45;;;10.40;99.90;;;;;;5038307;28;20056;-77
2022/05/06 06:03:37;;;;;;;4.82;3.35;;;10.50;99.90;;;;;;5020866;28;20435;-76
2022/05/06 06:06:06;;;;;;;7.18;3.92;;;10.60;99.90;;;;;;5046786;28;20034;-76
2022/05/06 06:08:32;;;;;;;7.47;3.33;;;10.60;99.90;;;;;;5027394;28;20050;-77
2022/05/06 06:11:03;;;;;;;4.55;3.40;;;10.70;99.90;;;;;;5032498;28;20041;-77
2022/05/06 06:13:34;;;;;;;4.97;3.00;;;10.80;99.90;;;;;;5045069;28;20048;-77
2022/05/06 06:16:03;;;;;;;6.90;3.13;;;10.80;99.90;;;;;;5029837;28;20048;-78
2022/05/06 06:18:29;;;;;;;6.28;3.00;;;11.10;99.90;;;;;;5031460;28;20048;-78
2022/05/06 06:20:58;;;;;;;5.22;3.03;;;11.10;99.90;;;;;;5037050;28;20037;-78
2022/05/06 06:23:25;;;;;;;5.28;2.90;;;11.40;99.90;;;;;;5030910;28;20056;-78
2022/05/06 06:25:52;;;;;;;6.07;3.10;;;11.50;99.90;;;;;;5041646;28;20060;-78
2022/05/06 06:28:19;;;;;;;5.43;2.80;;;11.60;99.90;;;;;;5034079;28;20041;-78
2022/05/06 06:30:46;;;;;;;4.82;3.30;;;11.70;99.90;;;;;;5030442;28;20052;-81
2022/05/06 06:33:16;;;;;;;3.63;3.00;;;11.70;99.90;;;;;;5042104;28;20053;-84
2022/05/06 06:35:43;;;;;;;5.22;2.05;;;11.80;99.90;;;;;;5014748;28;20041;-84
2022/05/06 06:38:10;;;;;;;4.63;2.53;;;12.10;99.90;;;;;;5030941;28;20041;-84
2022/05/06 06:40:41;;;;;;;4.63;3.03;;;12.80;99.90;;;;;;5033657;28;20041;-84
2022/05/06 06:43:07;;;;;;;2.67;2.25;;;13.80;98.90;;;;;;5035514;28;20040;-85
2022/05/06 06:45:53;;;;;;;4.43;2.47;;;14.10;96.70;;;;;;5040288;28;20036;-85
2022/05/06 06:48:57;;;;;;;5.68;2.83;;;14.00;96.30;;;;;;4947667;28;20039;-84
2022/05/06 06:51:52;;;;;;;2.80;2.40;;;14.60;95.50;;;;;;4932357;28;20063;-85
2022/05/06 06:54:18;;;;;;;5.45;2.90;;;15.10;93.50;;;;;;5007010;28;20037;-85
2022/05/06 06:56:44;;;;;;;3.13;2.70;;;15.30;93.30;;;;;;5015693;28;20504;-87
2022/05/06 06:59:11;;;;;;;4.05;2.65;;;15.30;92.40;;;;;;5033847;28;20037;-85
2022/05/06 07:01:37;;;;;;;5.10;2.83;;;15.50;92.00;;;;;;5033289;28;20026;-85
2022/05/06 07:04:03;;;;;;;3.47;2.42;;;15.70;91.20;;;;;;5031419;28;20348;-84
2022/05/06 07:11:59;;;;;;;3.13;2.33;;;15.40;91.40;;;;;;5043482;28;20045;-85
2022/05/06 07:14:30;;;;;;;2.58;2.30;;;15.90;90.20;;;;;;5031651;28;20049;-85
2022/05/06 07:16:56;;;;;;;3.70;2.13;;;15.90;90.10;;;;;;5032353;28;20046;-86
2022/05/06 07:19:23;;;;;;;7.18;2.75;;;15.80;89.90;;;;;;5016314;28;20089;-86
2022/05/06 07:21:49;;;;;;;2.47;1.90;;;15.50;89.90;;;;;;5047667;28;20044;-84
2022/05/06 07:24:16;;;;;;;5.05;2.95;;;16.00;89.60;;;;;;5018583;28;20041;-86
2022/05/06 07:26:43;;;;;;;3.55;2.17;;;16.50;87.00;;;;;;5015194;28;20049;-86
2022/05/06 07:29:09;;;;;;;4.50;2.50;;;16.60;85.60;;;;;;5033308;28;20465;-86
2022/05/06 07:31:35;;;;;;;3.85;2.75;;;16.20;86.00;;;;;;5033195;28;20048;-85
2022/05/06 07:34:02;;;;;;;6.45;2.47;;;16.20;86.20;;;;;;5032719;28;20041;-85
2022/05/06 07:36:28;;;;;;;3.28;2.25;;;16.70;86.30;;;;;;5032658;28;20044;-86
2022/05/06 07:38:54;;;;;;;2.58;2.28;;;17.10;84.20;;;;;;5034094;28;20044;-83
2022/05/06 07:41:20;;;;;;;3.58;2.70;;;17.00;81.20;;;;;;5044431;28;20029;-86
2022/05/06 07:43:46;;;;;;;5.68;2.55;;;16.90;82.40;;;;;;5045666;28;20029;-86
2022/05/06 07:46:13;;;;;;;8.98;3.25;;;16.70;82.50;;;;;;5041103;28;20033;-87
2022/05/06 07:48:39;;;;;;;2.33;2.13;;;17.40;79.20;;;;;;5015299;28;20103;-85
2022/05/06 07:51:05;;;;;;;2.47;2.10;;;17.10;81.70;;;;;;5034505;28;20398;-85
2022/05/06 07:53:32;;;;;;;3.03;2.72;;;17.40;79.70;;;;;;5033915;28;20025;-86
2022/05/06 07:55:58;;;;;;;4.00;1.90;;;18.30;75.80;;;;;;5035101;28;20033;-87
2022/05/06 07:58:24;;;;;;;3.28;2.97;;;18.70;74.60;;;;;;5036300;28;20051;-85
2022/05/06 08:00:51;;;;;;;4.25;2.25;;;18.00;76.60;;;;;;5053057;28;20044;-87
2022/05/06 08:06:03;;;;;;;11.80;2.95;;;17.90;74.80;;;;;;5035293;28;20041;-86
2022/05/06 08:08:30;;;;;;;27.42;2.35;;;18.50;74.70;;;;;;5041599;28;20029;-88
2022/05/06 08:10:57;;;;;;;3.00;2.45;;;18.40;74.20;;;;;;5040575;28;20398;-89
2022/05/06 08:13:23;;;;;;;3.97;2.28;;;18.20;73.70;;;;;;5051892;28;20040;-90
2022/05/06 08:15:51;;;;;;;5.55;2.13;;;18.10;74.30;;;;;;5045700;28;20897;-86
2022/05/06 08:18:17;;;;;;;4.68;2.03;;;18.60;72.80;;;;;;5036862;28;20109;-87
2022/05/06 08:20:43;;;;;;;7.80;2.30;;;20.00;67.50;;;;;;5046733;28;20478;-87
2022/05/06 08:23:10;;;;;;;2.60;2.15;;;19.40;69.20;;;;;;5055297;28;20032;-86
2022/05/06 08:25:36;;;;;;;2.58;1.60;;;19.20;69.40;;;;;;5048704;28;20040;-89
2022/05/06 08:28:03;;;;;;;2.70;1.65;;;19.50;68.30;;;;;;5035432;28;20054;-89
2022/05/06 08:30:29;;;;;;;3.33;1.90;;;19.00;69.40;;;;;;5037000;28;20042;-88
2022/05/06 08:32:56;;;;;;;3.38;2.22;;;19.50;68.10;;;;;;5018825;28;20033;-88
2022/05/06 08:35:22;;;;;;;2.70;1.73;;;19.20;68.30;;;;;;5035763;28;20041;-87
2022/05/06 08:37:49;;;;;;;5.18;1.92;;;20.50;67.20;;;;;;5037225;28;20627;-85
2022/05/06 08:40:17;;;;;;;4.28;1.95;;;21.20;61.70;;;;;;5036492;28;20034;-89
2022/05/06 08:42:44;;;;;;;1.65;1.30;;;20.50;62.20;;;;;;5035921;28;20029;-90
2022/05/06 08:50:52;;;;;;;2.95;1.90;;;20.10;64.40;;;;;;5049258;28;20040;-86
2022/05/06 08:53:24;;;;;;;2.42;1.45;;;20.50;62.70;;;;;;5025390;28;20041;-85
2022/05/06 08:55:55;;;;;;;2.35;1.65;;;21.10;61.20;;;;;;5042572;28;20044;-85
2022/05/06 08:58:23;;;;;;;3.97;1.73;;;22.10;58.30;;;;;;5036229;28;20038;-88
2022/05/06 09:00:50;;;;;;;3.25;1.75;;;21.40;59.70;;;;;;5045997;28;20384;-88
2022/05/06 09:03:17;;;;;;;1.52;1.30;;;22.00;57.80;;;;;;5049854;28;20033;-87
2022/05/06 09:05:52;;;;;;;2.70;1.30;;;22.40;57.40;;;;;;5017943;28;20049;-86
2022/05/06 09:08:20;;;;;;;5.72;1.65;;;21.40;58.30;;;;;;5036043;28;20060;-86
2022/05/06 09:11:03;;;;;;;1.77;1.25;;;21.50;57.90;;;;;;5017738;28;20037;-86
2022/05/06 09:13:36;;;;;;;2.65;1.38;;;22.60;56.30;;;;;;5014931;28;20040;-84
2022/05/06 09:16:42;;;;;;;3.88;1.50;;;21.10;57.20;;;;;;5031729;28;20050;-81
2022/05/06 09:19:13;;;;;;;1.63;0.88;;;20.40;54.40;;;;;;5004637;28;20045;-84
2022/05/06 09:21:41;;;;;;;2.15;1.00;;;19.90;53.90;;;;;;5034572;28;20029;-80
2022/05/06 09:24:19;;;;;;;2.08;1.05;;;19.70;53.30;;;;;;5019785;28;20497;-86
2022/05/06 09:27:18;;;;;;;0.90;0.70;;;20.50;52.40;;;;;;5015636;28;20048;-85
2022/05/06 09:29:49;;;;;;;2.63;1.00;;;21.60;50.40;;;;;;4982554;28;20046;-81
2022/05/06 09:32:23;;;;;;;2.05;0.80;;;20.70;49.70;;;;;;5031162;28;20029;-84
2022/05/06 09:34:54;;;;;;;2.05;0.70;;;20.80;50.30;;;;;;5061344;28;20037;-80
2022/05/06 09:37:37;;;;;;;4.15;0.88;;;20.90;50.80;;;;;;5016405;28;20034;-82
2022/05/06 09:40:27;;;;;;;0.85;0.68;;;21.50;49.00;;;;;;5037842;28;20475;-85
2022/05/06 09:42:53;;;;;;;0.95;0.85;;;21.50;47.00;;;;;;5042143;28;20029;-84
2022/05/06 09:45:42;;;;;;;0.70;0.50;;;21.10;47.10;;;;;;5037472;28;20377;-79
2022/05/06 09:48:09;;;;;;;3.30;0.70;;;21.00;48.90;;;;;;5014345;28;20042;-89
2022/05/06 09:50:38;;;;;;;1.45;0.55;;;21.00;48.10;;;;;;5033512;28;20033;-84
2022/05/06 09:53:07;;;;;;;0.90;0.65;;;21.30;47.40;;;;;;5032989;28;20030;-84
2022/05/06 09:55:36;;;;;;;1.42;0.73;;;21.50;47.00;;;;;;5015371;28;20029;-86
2022/05/06 09:58:02;;;;;;;1.27;1.08;;;21.80;47.20;;;;;;5031260;28;20041;-83
2022/05/06 10:00:31;;;;;;;1.60;0.75;;;20.90;47.90;;;;;;5033412;28;20044;-87
2022/05/06 10:02:58;;;;;;;1.55;0.73;;;20.50;46.90;;;;;;5035445;28;20026;-85
2022/05/06 10:05:25;;;;;;;2.53;0.90;;;20.20;48.00;;;;;;5016033;28;20029;-84
2022/05/06 10:08:12;;;;;;;1.65;0.85;;;20.30;47.60;;;;;;5033111;28;20029;-81
2022/05/06 10:10:48;;;;;;;1.50;0.85;;;20.00;48.30;;;;;;5025748;28;20046;-83
2022/05/06 10:13:22;;;;;;;3.00;1.25;;;20.00;49.40;;;;;;5026121;28;20041;-84
2022/05/06 10:15:51;;;;;;;0.90;0.68;;;19.90;47.90;;;;;;5024595;28;20037;-80
2022/05/06 10:18:33;;;;;;;2.78;0.90;;;19.60;49.50;;;;;;5036820;28;20040;-84
2022/05/06 10:21:01;;;;;;;1.25;0.77;;;19.70;48.90;;;;;;5052267;28;20051;-83
2022/05/06 10:23:50;;;;;;;1.15;0.77;;;19.60;49.20;;;;;;5035663;28;20028;-80
2022/05/06 10:26:41;;;;;;;1.40;0.90;;;19.70;47.80;;;;;;5033267;28;20045;-84
2022/05/06 10:35:02;;;;;;;1.85;1.10;;;20.50;48.40;;;;;;5046359;28;20029;-83
2022/05/06 10:37:45;;;;;;;6.68;1.20;;;19.70;47.90;;;;;;5035414;28;20049;-82
2022/05/06 10:40:23;;;;;;;4.28;1.17;;;19.50;48.10;;;;;;5049390;28;20041;-86
2022/05/06 10:42:51;;;;;;;4.00;1.25;;;19.50;48.50;;;;;;5030762;28;20045;-80
2022/05/06 10:45:32;;;;;;;4.80;1.20;;;19.90;48.80;;;;;;5053342;28;20040;-85
2022/05/06 10:47:58;;;;;;;5.90;1.30;;;19.90;48.40;;;;;;5037632;28;20036;-80
2022/05/06 10:50:29;;;;;;;2.53;1.00;;;19.90;48.10;;;;;;5038612;28;20390;-83
2022/05/06 10:53:01;;;;;;;3.30;1.17;;;19.90;48.90;;;;;;5054026;28;20472;-85
2022/05/06 10:55:28;;;;;;;1.77;1.02;;;20.00;48.50;;;;;;5026373;28;20042;-79
2022/05/06 10:58:02;;;;;;;1.98;1.25;;;20.20;48.20;;;;;;5052632;28;20028;-82
2022/05/06 11:00:30;;;;;;;2.28;1.33;;;20.30;48.10;;;;;;5051954;28;20032;-81
2022/05/06 11:03:00;;;;;;;1.48;1.00;;;20.10;48.30;;;;;;5044610;28;20033;-85
2022/05/06 11:05:29;;;;;;;;;;;20.20;48.10;;;;;;5030488;28;20037;-80
2022/05/06 11:07:58;;;;;;;4.82;2.13;;;19.90;47.10;;;;;;5032383;28;19940;-85
2022/05/06 11:10:28;;;;;;;4.78;1.13;;;19.90;48.60;;;;;;5048241;28;20144;-81
2022/05/06 11:12:57;;;;;;;1.60;0.85;;;20.20;47.80;;;;;;5033677;28;20057;-85
2022/05/06 11:15:36;;;;;;;2.08;0.80;;;20.50;48.20;;;;;;5024074;28;20056;-85
2022/05/06 11:18:04;;;;;;;1.13;0.90;;;20.30;47.90;;;;;;5018614;28;20155;-84
2022/05/06 11:20:33;;;;;;;4.43;1.15;;;20.40;48.10;;;;;;5053682;28;20040;-79
2022/05/06 11:23:06;;;;;;;1.50;1.02;;;20.60;48.00;;;;;;5073249;28;20033;-85
2022/05/06 11:26:07;;;;;;;1.60;0.90;;;20.10;48.40;;;;;;5035206;28;20044;-86
2022/05/06 11:28:37;;;;;;;2.20;0.93;;;19.90;47.90;;;;;;5056819;28;20056;-89
2022/05/06 11:31:03;;;;;;;3.13;0.90;;;20.00;48.70;;;;;;5036893;28;20045;-80
2022/05/06 11:33:34;;;;;;;3.47;1.00;;;19.90;48.40;;;;;;5045126;28;20458;-83
2022/05/06 11:36:03;;;;;;;1.63;1.00;;;19.80;47.70;;;;;;5035267;28;20033;-81
2022/05/06 11:38:37;;;;;;;4.72;1.08;;;20.00;48.40;;;;;;5034318;28;20042;-78
2022/05/06 11:41:07;;;;;;;1.40;0.88;;;19.60;49.00;;;;;;5005428;28;20045;-87
2022/05/06 11:43:34;;;;;;;2.17;0.77;;;19.60;49.20;;;;;;5048849;28;20037;-81
2022/05/06 11:48:46;;;;;;;2.10;0.95;;;19.40;49.70;;;;;;5049396;28;20410;-78
2022/05/06 11:51:23;;;;;;;1.70;0.80;;;19.90;49.60;;;;;;5040897;28;20036;-80
2022/05/06 11:53:50;;;;;;;1.25;0.82;;;20.00;47.80;;;;;;5030419;28;20320;-78
2022/05/06 11:56:21;;;;;;;1.70;0.80;;;19.90;48.40;;;;;;5044035;28;20029;-78
2022/05/06 11:58:48;;;;;;;1.08;0.68;;;20.20;49.50;;;;;;5055809;28;20036;-78
2022/05/06 12:01:30;;;;;;;1.42;0.85;;;20.30;48.80;;;;;;5039699;28;20080;-78
2022/05/06 12:04:10;;;;;;;1.58;0.73;;;20.40;48.20;;;;;;5021640;28;20038;-77
2022/05/06 12:06:47;;;;;;;0.82;0.70;;;20.60;48.40;;;;;;5029467;28;20045;-79
2022/05/06 12:09:21;;;;;;;8.40;0.82;;;21.00;48.40;;;;;;5023262;28;20045;-78
2022/05/06 12:12:04;;;;;;;4.72;0.57;;;21.00;48.20;;;;;;5057713;28;20033;-78
2022/05/06 12:14:30;;;;;;;4.20;0.88;;;20.50;49.50;;;;;;5021756;28;20045;-80
2022/05/06 12:16:59;;;;;;;2.45;1.00;;;20.30;48.90;;;;;;5024319;28;20053;-81
2022/05/06 12:19:39;;;;;;;1.30;0.98;;;19.60;48.90;;;;;;5039628;28;20028;-79
2022/05/06 12:22:20;;;;;;;2.45;1.00;;;19.70;50.30;;;;;;5039356;28;20032;-80
2022/05/06 12:24:49;;;;;;;2.33;0.93;;;19.90;49.80;;;;;;5039362;28;20100;-81
2022/05/06 12:27:33;;;;;;;1.42;1.23;;;20.20;49.20;;;;;;5037245;28;20033;-78
2022/05/06 12:30:00;;;;;;;3.20;0.95;;;20.20;48.40;;;;;;5020855;28;20045;-78
2022/05/06 12:32:30;;;;;;;1.17;0.80;;;20.00;48.20;;;;;;5058852;28;20035;-78
2022/05/06 12:35:10;;;;;;;1.67;1.08;;;20.00;48.50;;;;;;5059055;28;20390;-81
2022/05/06 12:37:52;;;;;;;3.13;1.20;;;20.50;50.00;;;;;;5050347;28;20382;-83
2022/05/06 12:40:18;;;;;;;1.77;0.70;;;20.80;47.80;;;;;;5039008;28;20299;-78
2022/05/06 12:42:44;;;;;;;1.75;1.00;;;21.00;47.20;;;;;;5051741;28;20033;-80
2022/05/06 12:45:12;;;;;;;1.75;0.50;;;20.90;47.60;;;;;;5039428;28;20040;-80
2022/05/06 12:50:23;;;;;;;2.58;1.05;;;21.20;47.40;;;;;;5036410;28;20068;-79
2022/05/06 12:52:49;;;;;;;1.95;1.05;;;20.90;48.30;;;;;;5017963;28;20037;-84
2022/05/06 12:55:15;;;;;;;0.98;0.80;;;20.70;48.40;;;;;;5039679;28;20388;-78
2022/05/06 12:57:41;;;;;;;1.27;0.55;;;20.40;48.30;;;;;;5049315;28;20030;-79
2022/05/06 13:00:08;;;;;;;1.75;0.98;;;20.30;48.30;;;;;;5035938;28;20470;-79
2022/05/06 13:02:35;;;;;;;0.68;0.43;;;20.30;48.30;;;;;;5035757;28;20029;-79
2022/05/06 13:05:01;;;;;;;4.40;0.82;;;20.60;48.20;;;;;;5036836;28;20033;-79
2022/05/06 13:07:27;;;;;;;1.10;0.70;;;21.20;48.40;;;;;;5037717;28;20029;-80
2022/05/06 13:09:54;;;;;;;0.68;0.60;;;21.20;47.40;;;;;;5035285;28;20053;-77
2022/05/06 13:12:20;;;;;;;1.90;0.73;;;20.80;47.70;;;;;;5052767;28;20029;-79
2022/05/06 13:14:46;;;;;;;1.23;0.70;;;20.40;48.70;;;;;;5036374;28;20033;-78
2022/05/06 13:17:12;;;;;;;1.45;0.70;;;20.40;48.70;;;;;;5037296;28;20060;-77
2022/05/06 13:19:38;;;;;;;0.73;0.50;;;20.40;47.40;;;;;;5035909;28;20037;-79
2022/05/06 13:22:04;;;;;;;1.25;0.90;;;20.70;48.40;;;;;;5034422;28;20041;-80
2022/05/06 13:24:31;;;;;;;1.48;0.80;;;21.10;46.80;;;;;;5037556;28;20029;-78
2022/05/06 13:26:57;;;;;;;1.00;0.70;;;21.70;49.30;;;;;;5037896;28;20037;-84
2022/05/06 13:29:23;;;;;;;3.47;1.00;;;21.90;46.70;;;;;;5039909;28;20049;-84
2022/05/06 13:31:49;;;;;;;1.30;0.73;;;22.10;45.60;;;;;;5047537;28;20049;-83
2022/05/06 13:34:16;;;;;;;4.80;1.10;;;22.00;45.70;;;;;;5053832;28;20043;-82
2022/05/06 13:36:42;;;;;;;1.27;0.90;;;21.60;45.70;;;;;;5039739;28;20029;-83
2022/05/06 13:39:08;;;;;;;1.23;0.60;;;21.40;47.00;;;;;;5053683;28;20442;-82